Time;durP1;ratioP1;P1;durP2;ratioP2;P2;SDS_P1;SDS_P2;PMS_P1;PMS_P2;Temp;Humidity;BMP_temperature;BMP_pressure;BME280_temperature;BME280_humidity;BME280_pressure;Samples;Min_cycle;Max_cycle;Signal;HPM_P1;HPM_P2
2023/02/24 00:00:06;;;;;;;1.70;1.30;;;7.30;98.20;;;;;;5008806;28;20551;-73
2023/02/24 00:02:33;;;;;;;1.70;1.40;;;7.30;98.20;;;;;;4996718;28;20522;-73
2023/02/24 00:05:00;;;;;;;1.60;1.20;;;7.30;98.20;;;;;;5006212;28;20686;-72
2023/02/24 00:07:32;;;;;;;1.63;1.30;;;7.30;98.20;;;;;;5011554;28;20479;-73
2023/02/24 00:10:09;;;;;;;1.60;1.30;;;7.20;98.20;;;;;;5012653;28;20810;-73
2023/02/24 00:12:42;;;;;;;1.60;1.23;;;7.20;98.20;;;;;;5004545;28;20909;-72
2023/02/24 00:15:11;;;;;;;1.60;1.30;;;7.20;98.20;;;;;;5008433;28;20473;-72
2023/02/24 00:17:38;;;;;;;1.70;1.40;;;7.20;98.20;;;;;;5011595;28;20479;-73
2023/02/24 00:20:10;;;;;;;1.63;1.30;;;7.20;98.20;;;;;;5012977;28;20456;-72
2023/02/24 00:22:40;;;;;;;1.60;1.20;;;7.10;98.20;;;;;;5010110;28;20486;-73
2023/02/24 00:25:11;;;;;;;1.70;1.30;;;7.10;98.20;;;;;;5010254;28;20520;-73
2023/02/24 00:27:39;;;;;;;1.60;1.30;;;7.10;98.20;;;;;;5010149;28;20506;-73
2023/02/24 00:30:09;;;;;;;1.70;1.30;;;7.10;98.20;;;;;;5011934;28;20511;-73
2023/02/24 00:32:40;;;;;;;1.60;1.30;;;7.10;98.20;;;;;;5008952;28;20483;-72
2023/02/24 00:35:11;;;;;;;1.70;1.40;;;7.10;98.20;;;;;;5008141;28;20487;-72
2023/02/24 00:37:43;;;;;;;1.60;1.30;;;7.10;98.20;;;;;;5009291;28;20487;-72
2023/02/24 00:40:14;;;;;;;1.60;1.20;;;7.10;98.20;;;;;;5013509;28;20471;-72
2023/02/24 00:42:47;;;;;;;1.60;1.20;;;7.10;98.20;;;;;;5018682;28;21027;-71
2023/02/24 00:45:18;;;;;;;1.63;1.30;;;7.10;98.20;;;;;;5012045;28;20490;-72
2023/02/24 00:47:45;;;;;;;1.60;1.20;;;7.10;98.20;;;;;;5017339;28;20937;-72
2023/02/24 00:50:23;;;;;;;1.67;1.30;;;7.10;98.20;;;;;;5012682;28;20550;-72
2023/02/24 00:52:57;;;;;;;1.67;1.30;;;7.10;98.20;;;;;;5018791;28;20516;-72
2023/02/24 00:55:35;;;;;;;1.67;1.30;;;7.10;98.20;;;;;;5013427;28;20485;-72
2023/02/24 00:58:08;;;;;;;1.67;1.30;;;7.10;98.20;;;;;;5016417;28;20491;-71
2023/02/24 01:00:46;;;;;;;1.63;1.30;;;7.00;98.20;;;;;;5012222;28;20484;-72
2023/02/24 01:03:13;;;;;;;1.70;1.40;;;7.10;98.20;;;;;;5021702;28;20509;-72
2023/02/24 01:05:40;;;;;;;1.60;1.20;;;7.10;98.20;;;;;;5029423;28;20705;-75
2023/02/24 01:10:40;;;;;;;1.60;1.30;;;7.00;98.20;;;;;;4986129;28;20865;-75
2023/02/24 01:13:26;;;;;;;1.80;1.40;;;7.00;98.20;;;;;;4980282;28;20477;-74
2023/02/24 01:16:00;;;;;;;1.63;1.30;;;7.00;98.20;;;;;;4972138;28;20528;-75
2023/02/24 01:18:29;;;;;;;1.67;1.30;;;7.00;98.20;;;;;;4986745;28;20488;-75
2023/02/24 01:20:58;;;;;;;2.37;2.17;;;6.90;98.20;;;;;;4962085;28;20459;-75
2023/02/24 01:23:25;;;;;;;1.67;1.37;;;6.90;98.20;;;;;;5009446;28;20834;-75
2023/02/24 01:25:57;;;;;;;1.60;1.20;;;6.80;98.20;;;;;;4977873;28;20457;-74
2023/02/24 01:28:24;;;;;;;1.70;1.40;;;6.80;98.20;;;;;;5004173;28;20482;-75
2023/02/24 01:30:51;;;;;;;1.70;1.30;;;6.70;98.20;;;;;;4981947;28;20485;-75
2023/02/24 01:33:18;;;;;;;1.60;1.27;;;6.70;98.20;;;;;;5012564;28;21050;-75
2023/02/24 01:35:45;;;;;;;1.60;1.33;;;6.60;98.20;;;;;;4993827;28;20465;-76
2023/02/24 01:38:12;;;;;;;2.23;2.03;;;6.60;98.20;;;;;;4998741;28;20907;-74
2023/02/24 01:40:39;;;;;;;1.63;1.30;;;6.60;98.20;;;;;;4998180;28;21148;-75
2023/02/24 01:43:10;;;;;;;1.63;1.40;;;6.60;98.20;;;;;;4997601;28;20483;-75
2023/02/24 01:45:38;;;;;;;1.70;1.40;;;6.60;98.20;;;;;;4989571;28;20956;-74
2023/02/24 01:48:08;;;;;;;1.70;1.30;;;6.60;98.20;;;;;;4997618;28;20975;-74
2023/02/24 01:50:36;;;;;;;1.60;1.20;;;6.60;98.20;;;;;;4993957;28;20489;-75
2023/02/24 01:53:07;;;;;;;1.60;1.20;;;6.60;98.20;;;;;;5002844;28;20483;-74
2023/02/24 01:55:41;;;;;;;1.70;1.47;;;6.50;98.20;;;;;;4989138;28;20453;-75
2023/02/24 01:58:15;;;;;;;1.63;1.30;;;6.50;98.20;;;;;;4998765;28;20475;-74
2023/02/24 02:00:46;;;;;;;1.70;1.40;;;6.50;98.20;;;;;;4990302;28;20465;-74
2023/02/24 02:03:19;;;;;;;1.67;1.30;;;6.50;98.20;;;;;;4985581;28;20472;-74
2023/02/24 02:05:48;;;;;;;1.67;1.30;;;6.50;98.20;;;;;;4985611;28;20814;-75
2023/02/24 02:08:17;;;;;;;1.70;1.30;;;6.50;98.20;;;;;;4981445;28;20480;-74
2023/02/24 02:10:45;;;;;;;1.60;1.30;;;6.50;98.20;;;;;;4997824;28;20495;-75
2023/02/24 02:13:19;;;;;;;1.67;1.30;;;6.40;98.20;;;;;;4992738;28;20483;-74
2023/02/24 02:15:55;;;;;;;1.67;1.30;;;6.40;98.20;;;;;;4997734;28;20467;-73
2023/02/24 02:18:30;;;;;;;1.63;1.20;;;6.40;98.20;;;;;;4969301;28;23622;-75
2023/02/24 02:21:17;;;;;;;1.60;1.30;;;6.40;98.20;;;;;;4979558;28;20452;-75
2023/02/24 02:24:03;;;;;;;1.70;1.40;;;6.40;98.20;;;;;;5002873;28;20461;-75
2023/02/24 02:27:06;;;;;;;1.60;1.20;;;6.30;98.20;;;;;;4981453;28;20485;-74
2023/02/24 02:30:00;;;;;;;1.70;1.40;;;6.30;98.20;;;;;;4997054;28;20500;-75
2023/02/24 02:33:05;;;;;;;1.70;1.40;;;6.30;98.20;;;;;;4994259;28;20489;-74
2023/02/24 02:35:37;;;;;;;1.63;1.30;;;6.20;98.20;;;;;;4992613;28;20460;-75
2023/02/24 02:38:13;;;;;;;1.80;1.60;;;6.20;98.20;;;;;;4999835;28;21121;-75
2023/02/24 02:40:46;;;;;;;1.70;1.47;;;6.20;98.20;;;;;;4988710;28;20468;-74
2023/02/24 02:43:18;;;;;;;1.63;1.30;;;6.20;98.20;;;;;;4984241;28;20535;-74
2023/02/24 02:45:54;;;;;;;1.70;1.40;;;6.20;98.20;;;;;;4996512;28;20471;-75
2023/02/24 02:48:27;;;;;;;1.60;1.30;;;6.20;98.20;;;;;;4982726;28;20476;-74
2023/02/24 02:51:03;;;;;;;1.70;1.40;;;6.10;98.20;;;;;;4983058;28;20581;-74
2023/02/24 02:53:36;;;;;;;1.60;1.20;;;6.10;98.20;;;;;;4992443;28;20485;-75
2023/02/24 02:56:10;;;;;;;1.70;1.30;;;6.10;98.20;;;;;;4988114;28;20473;-74
2023/02/24 02:58:42;;;;;;;1.70;1.50;;;6.10;98.20;;;;;;5001642;28;20486;-75
2023/02/24 03:01:11;;;;;;;1.60;1.30;;;6.10;98.20;;;;;;4980292;28;20480;-75
2023/02/24 03:03:44;;;;;;;1.67;1.40;;;6.10;98.20;;;;;;5003843;28;20465;-75
2023/02/24 03:06:16;;;;;;;1.60;1.30;;;6.10;98.20;;;;;;4973791;28;21003;-75
2023/02/24 03:08:56;;;;;;;1.63;1.30;;;6.10;98.20;;;;;;5004836;28;20633;-75
2023/02/24 03:11:25;;;;;;;1.70;1.40;;;6.10;98.20;;;;;;4987080;28;20482;-75
2023/02/24 03:13:55;;;;;;;1.63;1.27;;;6.10;98.20;;;;;;5004041;28;20958;-75
2023/02/24 03:16:25;;;;;;;1.70;1.30;;;6.10;98.20;;;;;;4989538;28;21020;-74
2023/02/24 03:18:58;;;;;;;1.67;1.23;;;6.10;98.20;;;;;;5002851;28;20524;-74
2023/02/24 03:21:31;;;;;;;1.70;1.40;;;6.10;98.20;;;;;;4990332;28;20543;-74
2023/02/24 03:24:01;;;;;;;1.60;1.20;;;6.10;98.20;;;;;;5003036;28;20469;-75
2023/02/24 03:26:32;;;;;;;1.70;1.40;;;6.10;98.20;;;;;;4983756;28;20553;-75
2023/02/24 03:29:06;;;;;;;1.70;1.43;;;6.00;98.20;;;;;;5007691;28;20906;-75
2023/02/24 03:31:40;;;;;;;1.63;1.30;;;6.00;98.20;;;;;;4986535;28;20508;-75
2023/02/24 03:34:13;;;;;;;1.67;1.30;;;6.00;98.20;;;;;;5002802;28;20499;-76
2023/02/24 03:36:44;;;;;;;1.67;1.30;;;6.00;98.20;;;;;;4987009;28;20486;-73
2023/02/24 03:39:12;;;;;;;1.70;1.40;;;5.90;98.20;;;;;;4999963;28;20519;-75
2023/02/24 03:41:45;;;;;;;1.60;1.37;;;6.00;98.20;;;;;;4985836;28;20499;-74
2023/02/24 03:44:13;;;;;;;1.70;1.40;;;5.90;98.20;;;;;;5004098;28;20464;-74
2023/02/24 03:46:41;;;;;;;1.70;1.40;;;5.90;98.20;;;;;;4981450;28;20487;-75
2023/02/24 03:49:15;;;;;;;1.60;1.30;;;5.90;98.20;;;;;;5007846;28;20574;-74
2023/02/24 03:51:49;;;;;;;1.60;1.27;;;5.80;98.20;;;;;;4982233;28;20484;-75
2023/02/24 03:54:31;;;;;;;1.63;1.30;;;5.80;98.20;;;;;;4998176;28;20471;-76
2023/02/24 03:57:15;;;;;;;1.67;1.30;;;5.80;98.20;;;;;;4992630;28;20484;-75
2023/02/24 03:59:51;;;;;;;1.70;1.30;;;5.80;98.20;;;;;;4992409;28;20881;-75
2023/02/24 04:02:23;;;;;;;1.70;1.50;;;5.80;98.20;;;;;;4988637;28;20605;-75
2023/02/24 04:04:55;;;;;;;1.70;1.40;;;5.80;98.20;;;;;;4997753;28;20469;-75
2023/02/24 04:07:41;;;;;;;1.60;1.30;;;5.80;98.20;;;;;;4995165;28;20534;-73
2023/02/24 04:10:14;;;;;;;1.60;1.30;;;5.70;98.20;;;;;;4999892;28;20846;-75
2023/02/24 04:12:47;;;;;;;1.60;1.20;;;5.70;98.20;;;;;;4995283;28;20570;-74
2023/02/24 04:15:21;;;;;;;1.60;1.40;;;5.70;98.20;;;;;;4997078;28;20467;-75
2023/02/24 04:17:52;;;;;;;1.67;1.37;;;5.70;98.20;;;;;;4995792;28;20924;-75
2023/02/24 04:20:22;;;;;;;1.70;1.40;;;5.70;98.20;;;;;;4997890;28;20475;-75
2023/02/24 04:22:53;;;;;;;1.70;1.40;;;5.70;98.20;;;;;;5004258;28;20533;-75
2023/02/24 04:25:23;;;;;;;1.70;1.43;;;5.60;98.20;;;;;;5001127;28;20557;-75
2023/02/24 04:27:53;;;;;;;1.60;1.20;;;5.60;98.20;;;;;;5002479;28;20475;-75
2023/02/24 04:30:20;;;;;;;1.67;1.40;;;5.60;98.20;;;;;;4997351;28;20575;-75
2023/02/24 04:32:48;;;;;;;1.67;1.37;;;5.60;98.20;;;;;;4992246;28;20575;-73
2023/02/24 04:35:19;;;;;;;1.63;1.33;;;5.60;98.20;;;;;;4997749;28;20979;-75
2023/02/24 04:37:46;;;;;;;1.70;1.40;;;5.60;98.20;;;;;;4994289;28;20491;-73
2023/02/24 04:40:19;;;;;;;1.63;1.30;;;5.50;98.20;;;;;;5002686;28;20538;-75
2023/02/24 04:42:49;;;;;;;1.60;1.30;;;5.50;98.20;;;;;;5001053;28;20534;-74
2023/02/24 04:45:17;;;;;;;1.67;1.30;;;5.50;98.20;;;;;;5001542;28;20557;-74
2023/02/24 04:47:48;;;;;;;1.67;1.30;;;5.50;98.20;;;;;;4995665;28;20552;-75
2023/02/24 04:50:21;;;;;;;1.63;1.30;;;5.50;98.20;;;;;;4997958;28;20499;-75
2023/02/24 04:52:50;;;;;;;1.63;1.30;;;5.40;98.20;;;;;;4990273;28;20897;-75
2023/02/24 04:55:21;;;;;;;1.60;1.30;;;5.30;98.20;;;;;;4996585;28;20460;-73
2023/02/24 04:57:48;;;;;;;1.60;1.30;;;5.30;98.20;;;;;;4996145;28;20491;-74
2023/02/24 05:00:25;;;;;;;1.60;1.40;;;5.30;98.20;;;;;;5000002;28;20487;-73
2023/02/24 05:02:54;;;;;;;1.67;1.37;;;5.30;98.20;;;;;;5003072;28;20993;-74
2023/02/24 05:05:24;;;;;;;1.60;1.30;;;5.20;98.20;;;;;;4996570;28;20486;-75
2023/02/24 05:07:51;;;;;;;1.63;1.37;;;5.20;98.20;;;;;;4997628;28;20503;-74
2023/02/24 05:10:20;;;;;;;1.60;1.30;;;5.20;98.20;;;;;;4991177;28;20576;-76
2023/02/24 05:12:48;;;;;;;1.67;1.30;;;5.20;98.20;;;;;;4993806;28;20655;-75
2023/02/24 05:15:16;;;;;;;1.67;1.40;;;5.20;98.20;;;;;;5001629;28;20468;-75
2023/02/24 05:17:43;;;;;;;1.67;1.30;;;5.20;98.20;;;;;;5000544;28;20484;-74
2023/02/24 05:22:56;;;;;;;1.70;1.40;;;5.10;98.20;;;;;;4977691;28;20877;-73
2023/02/24 05:25:25;;;;;;;1.70;1.40;;;5.10;98.20;;;;;;4983570;28;20536;-75
2023/02/24 05:27:53;;;;;;;1.63;1.40;;;5.10;98.20;;;;;;4990953;28;20488;-75
2023/02/24 05:30:20;;;;;;;1.60;1.30;;;5.10;98.20;;;;;;4988918;28;20472;-75
2023/02/24 05:32:47;;;;;;;1.60;1.30;;;5.10;98.20;;;;;;4985904;28;20484;-75
2023/02/24 05:35:14;;;;;;;1.60;1.30;;;5.10;98.20;;;;;;4978826;28;20530;-76
2023/02/24 05:37:42;;;;;;;1.67;1.40;;;5.10;98.20;;;;;;4981535;28;21109;-73
2023/02/24 05:40:14;;;;;;;1.60;1.30;;;5.10;98.20;;;;;;4979821;28;21026;-73
2023/02/24 05:42:44;;;;;;;1.70;1.57;;;5.10;98.20;;;;;;4991379;28;20481;-74
2023/02/24 05:45:11;;;;;;;1.70;1.40;;;5.10;98.20;;;;;;4985080;28;20905;-76
2023/02/24 05:47:46;;;;;;;1.67;1.40;;;5.10;98.20;;;;;;4986606;28;20523;-74
2023/02/24 05:50:13;;;;;;;1.70;1.57;;;5.10;98.20;;;;;;4980496;28;20557;-74
2023/02/24 05:52:44;;;;;;;1.70;1.50;;;5.00;98.20;;;;;;4983123;28;20492;-74
2023/02/24 05:55:12;;;;;;;1.70;1.50;;;5.00;98.20;;;;;;4980223;28;20484;-73
2023/02/24 05:57:40;;;;;;;1.67;1.37;;;5.00;98.20;;;;;;4987422;28;20710;-75
2023/02/24 06:00:14;;;;;;;1.70;1.40;;;5.00;98.20;;;;;;4984298;28;20477;-75
2023/02/24 06:02:48;;;;;;;1.70;1.50;;;5.00;98.20;;;;;;4988763;28;20508;-74
2023/02/24 06:05:25;;;;;;;1.67;1.37;;;5.00;98.20;;;;;;4985562;28;20465;-74
2023/02/24 06:08:05;;;;;;;1.70;1.40;;;5.00;98.20;;;;;;4989131;28;20476;-74
2023/02/24 06:10:33;;;;;;;1.70;1.40;;;5.00;98.20;;;;;;4976454;28;20469;-74
2023/02/24 06:13:02;;;;;;;1.70;1.50;;;5.00;98.20;;;;;;4984571;28;20492;-73
2023/02/24 06:15:31;;;;;;;1.70;1.40;;;5.00;98.20;;;;;;4976902;28;20501;-73
2023/02/24 06:17:59;;;;;;;1.70;1.33;;;5.00;98.20;;;;;;4986150;28;21035;-73
2023/02/24 06:20:28;;;;;;;1.70;1.50;;;4.90;98.20;;;;;;4978822;28;20906;-73
2023/02/24 06:22:57;;;;;;;1.63;1.40;;;5.00;98.20;;;;;;4993195;28;20527;-73
2023/02/24 06:25:25;;;;;;;1.70;1.50;;;5.00;98.20;;;;;;4982962;28;20904;-73
2023/02/24 06:27:54;;;;;;;1.70;1.50;;;5.00;98.20;;;;;;4983944;28;20509;-73
2023/02/24 06:30:23;;;;;;;1.70;1.50;;;5.00;98.20;;;;;;4981979;28;20581;-72
2023/02/24 06:32:52;;;;;;;1.70;1.40;;;5.00;98.20;;;;;;4984434;28;20489;-73
2023/02/24 06:35:21;;;;;;;1.60;1.30;;;5.00;98.20;;;;;;4981431;28;20469;-73
2023/02/24 06:37:50;;;;;;;1.70;1.40;;;4.90;98.20;;;;;;4986591;28;20488;-73
2023/02/24 06:40:18;;;;;;;1.63;1.30;;;4.90;98.20;;;;;;4975898;28;20909;-72
2023/02/24 06:42:46;;;;;;;1.70;1.40;;;4.90;98.20;;;;;;4991756;28;20480;-73
2023/02/24 06:45:15;;;;;;;1.63;1.30;;;4.90;98.20;;;;;;5004041;28;20472;-72
2023/02/24 06:47:43;;;;;;;1.67;1.40;;;4.90;98.20;;;;;;5000930;28;20494;-73
2023/02/24 06:50:14;;;;;;;1.60;1.30;;;5.00;98.20;;;;;;4987892;28;20562;-73
2023/02/24 06:52:42;;;;;;;1.70;1.50;;;5.00;98.20;;;;;;4991346;28;20941;-73
2023/02/24 06:55:24;;;;;;;1.70;1.40;;;5.00;98.20;;;;;;4993559;28;20742;-73
2023/02/24 06:58:02;;;;;;;1.70;1.30;;;5.00;98.20;;;;;;4995080;28;20488;-73
2023/02/24 07:00:38;;;;;;;1.70;1.30;;;5.10;98.20;;;;;;4994243;28;21004;-73
2023/02/24 07:03:17;;;;;;;1.70;1.40;;;5.10;98.20;;;;;;4986706;28;21078;-73
2023/02/24 07:05:52;;;;;;;1.70;1.50;;;5.10;98.20;;;;;;4991398;28;20993;-73
2023/02/24 07:08:22;;;;;;;1.70;1.43;;;5.20;98.20;;;;;;4976145;28;20472;-72
2023/02/24 07:10:54;;;;;;;1.70;1.50;;;5.20;98.20;;;;;;4979841;28;20914;-72
2023/02/24 07:13:23;;;;;;;1.70;1.40;;;5.20;98.20;;;;;;5006201;28;20476;-72
2023/02/24 07:15:50;;;;;;;1.70;1.40;;;5.20;98.20;;;;;;4986361;28;20473;-73
2023/02/24 07:18:18;;;;;;;1.63;1.30;;;5.20;98.20;;;;;;5001353;28;20466;-73
2023/02/24 07:20:47;;;;;;;1.70;1.40;;;5.30;98.20;;;;;;4992263;28;20517;-75
2023/02/24 07:23:15;;;;;;;1.63;1.30;;;5.30;98.20;;;;;;4981219;28;20988;-74
2023/02/24 07:25:45;;;;;;;1.63;1.30;;;5.30;98.20;;;;;;4992054;28;20869;-73
2023/02/24 07:28:12;;;;;;;1.67;1.40;;;5.30;98.20;;;;;;4988858;28;20472;-73
2023/02/24 07:30:45;;;;;;;1.63;1.40;;;5.30;98.20;;;;;;4996848;28;20815;-74
2023/02/24 07:33:16;;;;;;;1.63;1.30;;;5.30;98.20;;;;;;4980117;28;20492;-74
2023/02/24 07:35:53;;;;;;;1.70;1.40;;;5.30;98.20;;;;;;4996281;28;20552;-74
2023/02/24 07:38:21;;;;;;;1.67;1.37;;;5.30;98.20;;;;;;4977602;28;20865;-75
2023/02/24 07:40:49;;;;;;;1.70;1.47;;;5.30;98.20;;;;;;4985201;28;20988;-75
2023/02/24 07:43:17;;;;;;;1.70;1.43;;;5.40;98.20;;;;;;5006544;28;20472;-75
2023/02/24 07:45:46;;;;;;;1.63;1.40;;;5.40;98.20;;;;;;4992125;28;20472;-74
2023/02/24 07:48:14;;;;;;;1.63;1.37;;;5.40;98.20;;;;;;4971959;28;20508;-75
2023/02/24 07:50:42;;;;;;;1.70;1.40;;;5.40;98.20;;;;;;4990973;28;20645;-75
2023/02/24 07:53:11;;;;;;;1.70;1.43;;;5.40;98.20;;;;;;4981843;28;20560;-74
2023/02/24 07:55:39;;;;;;;1.60;1.30;;;5.50;98.20;;;;;;4985889;28;20462;-75
2023/02/24 07:58:06;;;;;;;1.70;1.40;;;5.60;98.20;;;;;;4990381;28;20475;-75
2023/02/24 08:00:49;;;;;;;1.70;1.50;;;5.60;98.20;;;;;;4989861;28;20472;-75
2023/02/24 08:03:16;;;;;;;1.70;1.30;;;5.60;98.20;;;;;;4996534;28;20464;-75
2023/02/24 08:05:43;;;;;;;1.70;1.40;;;5.70;98.20;;;;;;4995171;28;20468;-73
2023/02/24 08:08:12;;;;;;;1.67;1.30;;;5.70;98.20;;;;;;4992604;28;20475;-74
2023/02/24 08:10:41;;;;;;;1.67;1.30;;;5.80;98.20;;;;;;4983167;28;20466;-73
2023/02/24 08:13:22;;;;;;;1.67;1.30;;;5.80;98.20;;;;;;4996708;28;20915;-74
2023/02/24 08:15:56;;;;;;;1.70;1.40;;;5.80;98.20;;;;;;4996183;28;20488;-72
2023/02/24 08:18:27;;;;;;;1.70;1.43;;;5.90;98.20;;;;;;4978022;28;20507;-73
2023/02/24 08:21:03;;;;;;;1.60;1.30;;;5.90;98.20;;;;;;4982978;28;20838;-73
2023/02/24 08:23:33;;;;;;;1.70;1.30;;;5.90;98.20;;;;;;5005285;28;20914;-73
2023/02/24 08:26:11;;;;;;;1.60;1.30;;;6.00;98.20;;;;;;4979151;28;20466;-73
2023/02/24 08:28:39;;;;;;;1.60;1.30;;;6.00;98.20;;;;;;4987974;28;20493;-74
2023/02/24 08:31:07;;;;;;;1.63;1.27;;;6.00;98.20;;;;;;4969650;28;20542;-73
2023/02/24 08:33:36;;;;;;;1.63;1.30;;;6.00;98.20;;;;;;4991985;28;20517;-74
2023/02/24 08:36:06;;;;;;;1.60;1.30;;;6.00;98.20;;;;;;4971685;28;20472;-74
2023/02/24 08:38:48;;;;;;;1.70;1.40;;;6.00;98.20;;;;;;4986173;28;20525;-74
2023/02/24 08:41:28;;;;;;;1.60;1.33;;;6.10;98.20;;;;;;4970466;28;20526;-75
2023/02/24 08:43:58;;;;;;;1.63;1.30;;;6.10;98.20;;;;;;4990700;28;20822;-75
2023/02/24 08:46:35;;;;;;;1.60;1.30;;;6.10;98.20;;;;;;4971322;28;20488;-74
2023/02/24 08:49:09;;;;;;;1.60;1.20;;;6.20;98.20;;;;;;4982849;28;20519;-73
2023/02/24 09:05:56;;;;;;;1.70;1.40;;;6.30;98.20;;;;;;4994203;28;20455;-78
2023/02/24 09:12:06;;;;;;;1.60;1.20;;;6.50;98.20;;;;;;4974419;28;20464;-76
2023/02/24 09:14:37;;;;;;;1.60;1.20;;;6.50;98.20;;;;;;4992921;28;20460;-78
2023/02/24 09:18:06;;;;;;;1.70;1.40;;;6.50;98.20;;;;;;4988436;28;20495;-77
2023/02/24 09:33:21;;;;;;;1.63;1.30;;;6.70;98.20;;;;;;5000036;28;21050;-76
2023/02/24 09:35:51;;;;;;;1.70;1.33;;;6.80;98.20;;;;;;4995303;28;20854;-76
2023/02/24 09:39:08;;;;;;;1.60;1.20;;;6.80;98.20;;;;;;4995559;28;20469;-76
2023/02/24 09:41:30;;;;;;;1.70;1.37;;;6.80;98.20;;;;;;4996657;28;20494;-76
2023/02/24 09:44:02;;;;;;;1.67;1.30;;;6.80;98.20;;;;;;5000834;28;21013;-76
2023/02/24 09:46:35;;;;;;;1.60;1.20;;;6.90;98.20;;;;;;5000089;28;20469;-77
2023/02/24 09:49:13;;;;;;;1.70;1.30;;;6.90;98.20;;;;;;4995751;28;21146;-76
2023/02/24 09:51:44;;;;;;;1.60;1.30;;;7.00;98.20;;;;;;4998102;28;20527;-76
2023/02/24 09:54:16;;;;;;;1.60;1.30;;;7.10;98.20;;;;;;4995809;28;20460;-76
2023/02/24 09:56:59;;;;;;;1.60;1.30;;;7.10;98.20;;;;;;4998467;28;20988;-76
2023/02/24 09:59:33;;;;;;;1.60;1.20;;;7.10;98.20;;;;;;4997751;28;20843;-76
2023/02/24 10:02:26;;;;;;;1.60;1.20;;;7.10;98.20;;;;;;5000861;28;21043;-77
2023/02/24 10:05:07;;;;;;;1.60;1.20;;;7.10;98.20;;;;;;4994876;28;20508;-77
2023/02/24 10:07:42;;;;;;;1.60;1.20;;;7.00;98.20;;;;;;4993946;28;20495;-76
2023/02/24 10:12:40;;;;;;;1.60;1.30;;;7.00;98.20;;;;;;5029317;23;20531;-76
2023/02/24 10:15:43;;;;;;;1.60;1.23;;;7.00;98.20;;;;;;5006604;28;21060;-76
2023/02/24 10:18:28;;;;;;;1.60;1.30;;;7.00;98.20;;;;;;5008561;28;20525;-78
2023/02/24 10:21:06;;;;;;;1.70;1.37;;;6.90;98.20;;;;;;5004953;28;20511;-77
2023/02/24 10:23:55;;;;;;;1.67;1.30;;;6.90;98.20;;;;;;5003807;28;20457;-76
2023/02/24 10:26:32;;;;;;;1.60;1.20;;;6.90;98.20;;;;;;5003597;28;20479;-77
2023/02/24 10:29:07;;;;;;;1.60;1.20;;;6.90;98.20;;;;;;5004399;28;20464;-78
2023/02/24 10:31:46;;;;;;;1.70;1.40;;;6.90;98.20;;;;;;5006398;28;20479;-77
2023/02/24 10:34:25;;;;;;;1.60;1.20;;;6.90;98.20;;;;;;5006984;28;20456;-77
2023/02/24 10:36:56;;;;;;;1.63;1.30;;;6.90;98.20;;;;;;5006175;28;20468;-77
2023/02/24 10:39:29;;;;;;;1.60;1.40;;;6.90;98.20;;;;;;5007568;28;20518;-78
2023/02/24 10:42:14;;;;;;;1.60;1.20;;;6.90;98.20;;;;;;5007699;28;20484;-77
2023/02/24 10:44:50;;;;;;;1.60;1.20;;;6.80;98.20;;;;;;5008668;28;20468;-77
2023/02/24 10:47:29;;;;;;;1.60;1.20;;;6.80;98.20;;;;;;5003197;28;20482;-77
2023/02/24 10:50:01;;;;;;;1.60;1.20;;;6.80;98.20;;;;;;5004745;28;20983;-76
2023/02/24 10:53:09;;;;;;;1.60;1.30;;;6.80;98.20;;;;;;5006825;28;20908;-76
2023/02/24 10:56:13;;;;;;;1.60;1.20;;;6.80;98.20;;;;;;5007053;28;20465;-77
2023/02/24 10:58:55;;;;;;;1.63;1.30;;;6.80;98.20;;;;;;4998704;28;20974;-77
2023/02/24 11:01:45;;;;;;;1.60;1.20;;;6.80;98.20;;;;;;5003079;28;20480;-76
2023/02/24 11:07:10;;;;;;;1.63;1.33;;;6.80;98.20;;;;;;4998165;28;20756;-76
2023/02/24 11:09:51;;;;;;;1.60;1.20;;;6.70;98.20;;;;;;5002006;28;20552;-77
2023/02/24 11:18:16;;;;;;;1.60;1.20;;;6.70;98.20;;;;;;5001395;28;20543;-76
2023/02/24 11:20:49;;;;;;;1.63;1.40;;;6.70;98.20;;;;;;5005083;28;20484;-76
2023/02/24 11:23:21;;;;;;;1.63;1.30;;;6.60;98.20;;;;;;5005405;28;20453;-76
2023/02/24 11:25:57;;;;;;;1.60;1.23;;;6.50;98.20;;;;;;5003816;28;20547;-75
2023/02/24 11:28:43;;;;;;;1.60;1.30;;;6.40;98.20;;;;;;5004516;28;20464;-75
2023/02/24 11:31:28;;;;;;;1.60;1.30;;;6.30;98.20;;;;;;5004956;28;20476;-76
2023/02/24 11:34:06;;;;;;;1.60;1.20;;;6.30;98.20;;;;;;5004213;28;20494;-76
2023/02/24 11:43:19;;;;;;;1.60;1.30;;;6.20;98.20;;;;;;4955773;28;20489;-76
2023/02/24 11:45:54;;;;;;;1.70;1.40;;;6.10;98.20;;;;;;4991961;28;20488;-75
2023/02/24 11:48:30;;;;;;;1.70;1.40;;;6.10;98.20;;;;;;4988323;28;20460;-76
2023/02/24 11:51:04;;;;;;;1.67;1.50;;;6.20;98.20;;;;;;5018985;23;21044;-76
2023/02/24 11:53:36;;;;;;;1.60;1.30;;;6.20;98.20;;;;;;5001167;28;20515;-76
2023/02/24 11:56:11;;;;;;;1.60;1.20;;;6.20;98.20;;;;;;5021913;28;20470;-76
2023/02/24 11:58:50;;;;;;;2.23;2.03;;;6.20;98.20;;;;;;5022799;28;20546;-76
2023/02/24 12:01:26;;;;;;;1.70;1.40;;;6.20;98.20;;;;;;5019543;28;20485;-75
2023/02/24 12:04:05;;;;;;;1.60;1.30;;;6.20;98.20;;;;;;5021191;28;20537;-76
2023/02/24 12:06:42;;;;;;;1.60;1.30;;;6.20;98.20;;;;;;5023457;28;20953;-77
2023/02/24 12:09:18;;;;;;;1.60;1.30;;;6.20;98.20;;;;;;5026918;28;20542;-76
2023/02/24 12:11:54;;;;;;;1.63;1.40;;;6.20;98.20;;;;;;5027495;28;20565;-77
2023/02/24 12:14:31;;;;;;;2.40;2.20;;;6.20;98.20;;;;;;5021306;28;20494;-77
2023/02/24 12:17:11;;;;;;;1.60;1.40;;;6.20;98.20;;;;;;5023386;28;20466;-78
2023/02/24 12:19:51;;;;;;;1.60;1.20;;;6.20;98.20;;;;;;5025784;28;20463;-76
2023/02/24 12:22:23;;;;;;;1.60;1.30;;;6.20;98.20;;;;;;5024205;28;20481;-78
2023/02/24 12:24:53;;;;;;;1.70;1.30;;;6.20;98.20;;;;;;5019870;28;20549;-77
2023/02/24 12:27:41;;;;;;;1.60;1.33;;;6.20;98.20;;;;;;5024617;28;20463;-76
2023/02/24 12:30:34;;;;;;;1.63;1.33;;;6.20;98.20;;;;;;5021443;28;20846;-78
2023/02/24 12:33:15;;;;;;;1.60;1.30;;;6.20;98.20;;;;;;5027015;28;21014;-76
2023/02/24 12:35:50;;;;;;;2.07;1.87;;;6.10;98.20;;;;;;5026270;28;20471;-76
2023/02/24 12:38:39;;;;;;;2.13;1.90;;;6.00;98.20;;;;;;5024556;28;20876;-76
2023/02/24 12:41:25;;;;;;;1.60;1.30;;;6.00;98.20;;;;;;5027932;28;20485;-76
2023/02/24 12:44:04;;;;;;;1.60;1.40;;;6.00;98.20;;;;;;5012635;28;20459;-77
2023/02/24 12:46:35;;;;;;;2.53;2.33;;;6.00;98.20;;;;;;5024541;28;20513;-76
2023/02/24 12:49:27;;;;;;;1.60;1.30;;;6.00;98.20;;;;;;5027307;28;20912;-76
2023/02/24 12:52:06;;;;;;;1.60;1.30;;;6.10;98.20;;;;;;5017306;28;20548;-76
2023/02/24 12:54:40;;;;;;;1.70;1.43;;;6.10;98.20;;;;;;5022318;28;20493;-76
2023/02/24 12:57:16;;;;;;;1.60;1.40;;;6.20;98.20;;;;;;5016138;28;20982;-76
2023/02/24 12:59:46;;;;;;;1.60;1.40;;;6.20;98.20;;;;;;5026539;28;20564;-76
2023/02/24 13:02:29;;;;;;;1.60;1.30;;;6.20;98.20;;;;;;5027859;28;20536;-77
2023/02/24 13:05:03;;;;;;;1.60;1.20;;;6.20;98.20;;;;;;5024711;28;20463;-76
2023/02/24 13:07:52;;;;;;;1.60;1.30;;;6.20;98.20;;;;;;5025757;28;20459;-76
2023/02/24 13:10:33;;;;;;;1.60;1.30;;;6.20;98.20;;;;;;5026319;28;20467;-77
2023/02/24 13:13:09;;;;;;;1.60;1.30;;;6.20;98.20;;;;;;5029686;28;20491;-76
2023/02/24 13:15:49;;;;;;;1.60;1.30;;;6.10;98.20;;;;;;5030456;28;20952;-76
2023/02/24 13:18:28;;;;;;;1.60;1.30;;;6.10;98.20;;;;;;5026794;28;20459;-77
2023/02/24 13:21:09;;;;;;;1.63;1.30;;;6.10;98.20;;;;;;5026735;28;20482;-76
2023/02/24 13:23:42;;;;;;;1.60;1.27;;;6.10;98.20;;;;;;5029075;28;20849;-77
2023/02/24 13:26:11;;;;;;;1.60;1.30;;;6.10;98.20;;;;;;5014294;28;20472;-78
2023/02/24 13:28:38;;;;;;;1.97;1.77;;;6.10;98.20;;;;;;5029039;28;20975;-76
2023/02/24 13:31:09;;;;;;;1.60;1.47;;;6.10;98.20;;;;;;5021401;28;20728;-77
2023/02/24 13:33:41;;;;;;;1.70;1.30;;;6.10;98.20;;;;;;5020674;28;20495;-76
2023/02/24 13:36:20;;;;;;;1.70;1.53;;;6.00;98.20;;;;;;5024957;28;20465;-77
2023/02/24 13:38:51;;;;;;;1.60;1.30;;;6.00;98.20;;;;;;5021970;28;20462;-78
2023/02/24 13:41:37;;;;;;;1.70;1.47;;;6.00;98.20;;;;;;5026756;28;20522;-78
2023/02/24 13:44:25;;;;;;;1.60;1.30;;;6.00;98.20;;;;;;5025805;28;20574;-77
2023/02/24 13:47:25;;;;;;;1.60;1.37;;;6.00;98.20;;;;;;5023270;28;20488;-79
2023/02/24 13:50:15;;;;;;;1.60;1.30;;;6.00;98.20;;;;;;5025976;28;20451;-78
2023/02/24 13:53:05;;;;;;;1.60;1.30;;;6.00;98.20;;;;;;5027175;28;20470;-78
2023/02/24 13:55:49;;;;;;;1.60;1.40;;;6.00;98.20;;;;;;5024359;28;20463;-77
2023/02/24 13:58:51;;;;;;;1.60;1.30;;;6.00;98.20;;;;;;5023742;28;20466;-79
2023/02/24 14:01:21;;;;;;;1.60;1.30;;;6.00;98.20;;;;;;5022301;28;20483;-80
2023/02/24 14:04:13;;;;;;;1.63;1.30;;;6.00;98.20;;;;;;5021441;28;20455;-78
2023/02/24 14:06:50;;;;;;;1.70;1.50;;;5.90;98.20;;;;;;5021559;28;20459;-79
2023/02/24 14:09:26;;;;;;;1.60;1.30;;;5.90;98.20;;;;;;5021392;28;20960;-77
2023/02/24 14:12:02;;;;;;;1.67;1.40;;;5.90;98.20;;;;;;5028124;28;20844;-78
2023/02/24 14:14:34;;;;;;;1.60;1.30;;;5.90;98.20;;;;;;5018187;28;20494;-77
2023/02/24 14:17:03;;;;;;;1.60;1.30;;;5.80;98.20;;;;;;5021258;28;20459;-75
2023/02/24 14:19:34;;;;;;;1.60;1.33;;;5.90;98.20;;;;;;5028606;28;20474;-77
2023/02/24 14:22:06;;;;;;;1.70;1.40;;;5.90;98.20;;;;;;5027488;28;20490;-76
2023/02/24 14:24:36;;;;;;;1.63;1.30;;;5.90;98.20;;;;;;5024473;28;20539;-76
2023/02/24 14:27:06;;;;;;;1.63;1.40;;;5.90;98.20;;;;;;5025096;28;20479;-78